sensor_id;sensor_type;location;lat;lon;timestamp;pressure;altitude;pressure_sealevel;temperature;humidity
69980;BME280;57318;56.232;43.944;2023-05-23T00:01:32;99892.72;;;15.99;44.39
69980;BME280;57318;56.232;43.944;2023-05-23T00:04:02;99898.22;;;15.97;44.67
69980;BME280;57318;56.232;43.944;2023-05-23T00:06:29;99888.63;;;15.95;44.71
69980;BME280;57318;56.232;43.944;2023-05-23T00:08:55;99897.78;;;15.92;44.68
69980;BME280;57318;56.232;43.944;2023-05-23T00:11:21;99893.72;;;15.88;45.06
69980;BME280;57318;56.232;43.944;2023-05-23T00:13:52;99889.63;;;15.84;45.20
69980;BME280;57318;56.232;43.944;2023-05-23T00:16:18;99889.94;;;15.81;45.59
69980;BME280;57318;56.232;43.944;2023-05-23T00:18:43;99885.97;;;15.75;45.37
69980;BME280;57318;56.232;43.944;2023-05-23T00:21:10;99893.44;;;15.72;45.51
69980;BME280;57318;56.232;43.944;2023-05-23T00:23:38;99895.28;;;15.71;45.63
69980;BME280;57318;56.232;43.944;2023-05-23T00:26:08;99896.56;;;15.67;45.72
69980;BME280;57318;56.232;43.944;2023-05-23T00:28:34;99894.03;;;15.65;45.50
69980;BME280;57318;56.232;43.944;2023-05-23T00:31:00;99892.34;;;15.64;46.04
69980;BME280;57318;56.232;43.944;2023-05-23T00:33:25;99896.00;;;15.63;45.90
69980;BME280;57318;56.232;43.944;2023-05-23T00:35:51;99895.31;;;15.61;45.90
69980;BME280;57318;56.232;43.944;2023-05-23T00:38:18;99892.06;;;15.58;45.97
69980;BME280;57318;56.232;43.944;2023-05-23T00:40:43;99895.75;;;15.57;46.11
69980;BME280;57318;56.232;43.944;2023-05-23T00:43:09;99893.34;;;15.54;46.12
69980;BME280;57318;56.232;43.944;2023-05-23T00:45:36;99897.00;;;15.52;46.17
69980;BME280;57318;56.232;43.944;2023-05-23T00:48:03;99898.72;;;15.54;46.14
69980;BME280;57318;56.232;43.944;2023-05-23T00:50:29;99888.97;;;15.52;46.10
69980;BME280;57318;56.232;43.944;2023-05-23T00:52:56;99889.53;;;15.56;46.35
69980;BME280;57318;56.232;43.944;2023-05-23T00:55:23;99894.88;;;15.56;46.07
69980;BME280;57318;56.232;43.944;2023-05-23T00:57:51;99892.06;;;15.58;46.27
69980;BME280;57318;56.232;43.944;2023-05-23T01:00:19;99894.75;;;15.58;46.36
69980;BME280;57318;56.232;43.944;2023-05-23T01:02:46;99886.56;;;15.59;46.18
69980;BME280;57318;56.232;43.944;2023-05-23T01:05:16;99892.06;;;15.58;46.40
69980;BME280;57318;56.232;43.944;2023-05-23T01:07:43;99893.75;;;15.59;46.49
69980;BME280;57318;56.232;43.944;2023-05-23T01:10:10;99885.19;;;15.55;46.35
69980;BME280;57318;56.232;43.944;2023-05-23T01:15:39;99888.25;;;15.60;46.31
69980;BME280;57318;56.232;43.944;2023-05-23T01:18:14;99888.41;;;15.59;46.47
69980;BME280;57318;56.232;43.944;2023-05-23T01:21:26;99888.41;;;15.59;46.53
69980;BME280;57318;56.232;43.944;2023-05-23T01:24:01;99886.41;;;15.61;46.48
69980;BME280;57318;56.232;43.944;2023-05-23T01:29:14;99881.63;;;15.64;46.01
69980;BME280;57318;56.232;43.944;2023-05-23T01:31:45;99876.28;;;15.64;46.14
69980;BME280;57318;56.232;43.944;2023-05-23T01:34:15;99883.44;;;15.64;46.12
69980;BME280;57318;56.232;43.944;2023-05-23T01:36:43;99877.13;;;15.65;46.32
69980;BME280;57318;56.232;43.944;2023-05-23T01:39:10;99879.66;;;15.66;46.45
69980;BME280;57318;56.232;43.944;2023-05-23T01:41:36;99887.00;;;15.64;46.55
69980;BME280;57318;56.232;43.944;2023-05-23T01:44:02;99887.00;;;15.64;46.43
69980;BME280;57318;56.232;43.944;2023-05-23T01:46:28;99880.78;;;15.64;46.15
69980;BME280;57318;56.232;43.944;2023-05-23T01:48:55;99886.13;;;15.64;46.36
69980;BME280;57318;56.232;43.944;2023-05-23T01:51:22;99880.78;;;15.64;46.16
69980;BME280;57318;56.232;43.944;2023-05-23T01:53:49;99888.66;;;15.65;46.42
69980;BME280;57318;56.232;43.944;2023-05-23T01:56:16;99885.00;;;15.66;46.39
69980;BME280;57318;56.232;43.944;2023-05-23T01:58:42;99879.50;;;15.68;46.37
69980;BME280;57318;56.232;43.944;2023-05-23T02:01:08;99884.44;;;15.73;46.28
69980;BME280;57318;56.232;43.944;2023-05-23T02:03:34;99888.09;;;15.72;46.37
69980;BME280;57318;56.232;43.944;2023-05-23T02:06:00;99888.41;;;15.78;46.30
69980;BME280;57318;56.232;43.944;2023-05-23T02:08:26;99884.44;;;15.82;46.32
69980;BME280;57318;56.232;43.944;2023-05-23T02:10:51;99885.13;;;15.84;46.36
69980;BME280;57318;56.232;43.944;2023-05-23T02:13:17;99890.03;;;15.89;46.24
69980;BME280;57318;56.232;43.944;2023-05-23T02:16:51;99886.38;;;15.90;46.41
69980;BME280;57318;56.232;43.944;2023-05-23T02:19:18;99892.44;;;15.92;46.36
69980;BME280;57318;56.232;43.944;2023-05-23T02:21:44;99893.72;;;15.88;46.53
69980;BME280;57318;56.232;43.944;2023-05-23T02:24:09;99896.94;;;15.92;46.64
69980;BME280;57318;56.232;43.944;2023-05-23T02:26:35;99899.34;;;15.95;46.36
69980;BME280;57318;56.232;43.944;2023-05-23T02:29:01;99903.28;;;16.00;46.26
69980;BME280;57318;56.232;43.944;2023-05-23T02:31:27;99899.84;;;16.08;46.01
69980;BME280;57318;56.232;43.944;2023-05-23T02:33:53;99898.13;;;16.17;45.97
69980;BME280;57318;56.232;43.944;2023-05-23T02:36:19;99905.13;;;16.28;45.57
69980;BME280;57318;56.232;43.944;2023-05-23T02:38:45;99912.97;;;16.39;45.34
69980;BME280;57318;56.232;43.944;2023-05-23T02:41:10;99909.09;;;16.51;45.21
69980;BME280;57318;56.232;43.944;2023-05-23T02:43:36;99913.97;;;16.66;44.88
69980;BME280;57318;56.232;43.944;2023-05-23T02:46:02;99923.19;;;16.81;44.69
69980;BME280;57318;56.232;43.944;2023-05-23T02:48:28;99917.63;;;16.92;44.53
69980;BME280;57318;56.232;43.944;2023-05-23T02:50:54;99917.97;;;17.07;44.05
69980;BME280;57318;56.232;43.944;2023-05-23T02:53:19;99919.56;;;17.18;44.11
69980;BME280;57318;56.232;43.944;2023-05-23T02:55:46;99916.66;;;17.29;43.92
69980;BME280;57318;56.232;43.944;2023-05-23T02:58:12;99919.41;;;17.38;43.92
69980;BME280;57318;56.232;43.944;2023-05-23T03:00:38;99915.25;;;17.43;43.75
69980;BME280;57318;56.232;43.944;2023-05-23T03:03:04;99922.13;;;17.46;43.90
69980;BME280;57318;56.232;43.944;2023-05-23T03:05:29;99916.97;;;17.53;44.17
69980;BME280;57318;56.232;43.944;2023-05-23T03:07:55;99910.78;;;17.52;44.11
69980;BME280;57318;56.232;43.944;2023-05-23T03:10:22;99913.09;;;17.47;43.87
69980;BME280;57318;56.232;43.944;2023-05-23T03:12:47;99917.44;;;17.48;43.74
69980;BME280;57318;56.232;43.944;2023-05-23T03:15:13;99914.13;;;17.54;44.18
69980;BME280;57318;56.232;43.944;2023-05-23T03:17:39;99924.25;;;17.60;43.88
69980;BME280;57318;56.232;43.944;2023-05-23T03:20:05;99916.59;;;17.65;43.65
69980;BME280;57318;56.232;43.944;2023-05-23T03:22:34;99914.91;;;17.64;43.95
69980;BME280;57318;56.232;43.944;2023-05-23T03:25:00;99915.09;;;17.71;44.16
69980;BME280;57318;56.232;43.944;2023-05-23T03:27:26;99907.25;;;17.78;44.06
69980;BME280;57318;56.232;43.944;2023-05-23T03:29:52;99913.00;;;17.83;44.23
69980;BME280;57318;56.232;43.944;2023-05-23T03:32:18;99919.22;;;17.83;44.45
69980;BME280;57318;56.232;43.944;2023-05-23T03:34:43;99915.53;;;17.84;44.26
69980;BME280;57318;56.232;43.944;2023-05-23T03:37:09;99912.31;;;17.81;44.29
69980;BME280;57318;56.232;43.944;2023-05-23T03:39:35;99902.56;;;17.80;44.42
69980;BME280;57318;56.232;43.944;2023-05-23T03:42:01;99917.22;;;17.85;44.47
69980;BME280;57318;56.232;43.944;2023-05-23T03:44:27;99904.03;;;17.92;44.56
69980;BME280;57318;56.232;43.944;2023-05-23T03:46:53;99908.06;;;17.96;44.08
69980;BME280;57318;56.232;43.944;2023-05-23T03:49:19;99907.44;;;18.02;44.23
69980;BME280;57318;56.232;43.944;2023-05-23T03:51:44;99905.66;;;18.11;44.27
69980;BME280;57318;56.232;43.944;2023-05-23T03:54:10;99905.50;;;18.21;44.20
69980;BME280;57318;56.232;43.944;2023-05-23T03:56:36;99909.75;;;18.24;43.89
69980;BME280;57318;56.232;43.944;2023-05-23T03:59:01;99903.88;;;18.28;44.04
69980;BME280;57318;56.232;43.944;2023-05-23T04:01:27;99906.94;;;18.42;44.29
69980;BME280;57318;56.232;43.944;2023-05-23T04:03:53;99910.69;;;18.49;44.42
69980;BME280;57318;56.232;43.944;2023-05-23T04:06:19;99898.56;;;18.53;44.02
69980;BME280;57318;56.232;43.944;2023-05-23T04:08:45;99907.38;;;18.63;43.79
69980;BME280;57318;56.232;43.944;2023-05-23T04:11:11;99912.41;;;18.66;43.64
69980;BME280;57318;56.232;43.944;2023-05-23T04:13:37;99914.47;;;18.72;43.57
69980;BME280;57318;56.232;43.944;2023-05-23T04:16:03;99911.78;;;18.72;43.71
69980;BME280;57318;56.232;43.944;2023-05-23T04:18:30;99896.59;;;18.71;43.64
69980;BME280;57318;56.232;43.944;2023-05-23T04:20:58;99911.41;;;18.67;43.95
69980;BME280;57318;56.232;43.944;2023-05-23T04:23:24;99899.13;;;18.73;43.86
69980;BME280;57318;56.232;43.944;2023-05-23T04:25:50;99897.66;;;18.79;44.01
69980;BME280;57318;56.232;43.944;2023-05-23T04:28:15;99907.38;;;18.80;43.78
69980;BME280;57318;56.232;43.944;2023-05-23T04:30:43;99905.44;;;18.90;44.09
69980;BME280;57318;56.232;43.944;2023-05-23T04:33:09;99909.50;;;19.02;44.20
69980;BME280;57318;56.232;43.944;2023-05-23T04:35:36;99910.16;;;19.13;43.79
69980;BME280;57318;56.232;43.944;2023-05-23T04:38:05;99908.34;;;19.21;44.10
69980;BME280;57318;56.232;43.944;2023-05-23T04:40:31;99905.31;;;19.33;43.78
69980;BME280;57318;56.232;43.944;2023-05-23T04:42:57;99913.22;;;19.59;43.48
69980;BME280;57318;56.232;43.944;2023-05-23T04:45:22;99913.56;;;19.89;43.24
69980;BME280;57318;56.232;43.944;2023-05-23T04:47:48;99902.31;;;20.16;42.34
69980;BME280;57318;56.232;43.944;2023-05-23T04:50:14;99907.13;;;20.46;41.79
69980;BME280;57318;56.232;43.944;2023-05-23T04:52:41;99902.75;;;20.76;41.30
69980;BME280;57318;56.232;43.944;2023-05-23T04:55:07;99908.53;;;20.96;39.01
69980;BME280;57318;56.232;43.944;2023-05-23T04:57:33;99901.34;;;21.12;38.39
69980;BME280;57318;56.232;43.944;2023-05-23T04:59:59;99908.31;;;21.29;37.67
69980;BME280;57318;56.232;43.944;2023-05-23T05:02:26;99904.69;;;21.37;35.77
69980;BME280;57318;56.232;43.944;2023-05-23T05:04:52;99901.47;;;21.41;36.27
69980;BME280;57318;56.232;43.944;2023-05-23T05:07:18;99900.88;;;21.54;36.38
69980;BME280;57318;56.232;43.944;2023-05-23T05:09:43;99906.91;;;21.56;36.37
69980;BME280;57318;56.232;43.944;2023-05-23T05:12:09;99909.25;;;21.59;37.16
69980;BME280;57318;56.232;43.944;2023-05-23T05:14:36;99907.34;;;21.68;37.13
69980;BME280;57318;56.232;43.944;2023-05-23T05:17:01;99906.31;;;21.84;37.52
69980;BME280;57318;56.232;43.944;2023-05-23T05:19:28;99906.50;;;21.97;37.06
69980;BME280;57318;56.232;43.944;2023-05-23T05:21:53;99893.56;;;22.08;37.05
69980;BME280;57318;56.232;43.944;2023-05-23T05:24:19;99906.16;;;22.30;37.19
69980;BME280;57318;56.232;43.944;2023-05-23T05:26:48;99906.41;;;22.50;36.86
69980;BME280;57318;56.232;43.944;2023-05-23T05:29:14;99908.25;;;22.65;36.74
69980;BME280;57318;56.232;43.944;2023-05-23T05:31:40;99903.72;;;22.87;36.95
69980;BME280;57318;56.232;43.944;2023-05-23T05:34:06;99905.81;;;23.06;36.55
69980;BME280;57318;56.232;43.944;2023-05-23T05:36:32;99896.81;;;23.21;35.81
69980;BME280;57318;56.232;43.944;2023-05-23T05:38:58;99893.22;;;23.42;35.69
69980;BME280;57318;56.232;43.944;2023-05-23T05:41:23;99901.75;;;23.67;35.46
69980;BME280;57318;56.232;43.944;2023-05-23T05:43:49;99898.41;;;23.87;34.82
69980;BME280;57318;56.232;43.944;2023-05-23T05:46:15;99896.41;;;24.02;34.83
69980;BME280;57318;56.232;43.944;2023-05-23T05:48:41;99901.09;;;24.22;34.62
69980;BME280;57318;56.232;43.944;2023-05-23T05:51:06;99895.31;;;24.31;34.19
69980;BME280;57318;56.232;43.944;2023-05-23T05:53:32;99902.47;;;24.46;34.05
69980;BME280;57318;56.232;43.944;2023-05-23T05:55:58;99895.19;;;24.53;33.61
69980;BME280;57318;56.232;43.944;2023-05-23T05:58:24;99894.66;;;24.71;33.45
69980;BME280;57318;56.232;43.944;2023-05-23T06:00:50;99895.78;;;24.97;33.40
69980;BME280;57318;56.232;43.944;2023-05-23T06:03:16;99896.44;;;25.19;32.26
69980;BME280;57318;56.232;43.944;2023-05-23T06:05:42;99895.00;;;25.30;31.82
69980;BME280;57318;56.232;43.944;2023-05-23T06:08:07;99908.38;;;25.51;32.24
69980;BME280;57318;56.232;43.944;2023-05-23T06:10:33;99902.94;;;25.71;31.51
69980;BME280;57318;56.232;43.944;2023-05-23T06:12:59;99901.69;;;25.81;31.17
69980;BME280;57318;56.232;43.944;2023-05-23T06:15:25;99891.63;;;25.81;30.44
69980;BME280;57318;56.232;43.944;2023-05-23T06:17:51;99895.84;;;25.70;28.75
69980;BME280;57318;56.232;43.944;2023-05-23T06:20:17;99901.69;;;25.61;28.41
69980;BME280;57318;56.232;43.944;2023-05-23T06:22:42;99886.84;;;25.63;28.91
69980;BME280;57318;56.232;43.944;2023-05-23T06:25:08;99895.63;;;25.72;28.75
69980;BME280;57318;56.232;43.944;2023-05-23T06:27:34;99894.56;;;25.80;28.22
69980;BME280;57318;56.232;43.944;2023-05-23T06:30:01;99890.19;;;25.72;28.37
69980;BME280;57318;56.232;43.944;2023-05-23T06:32:28;99887.91;;;25.69;28.90
69980;BME280;57318;56.232;43.944;2023-05-23T06:34:53;99888.09;;;25.74;29.02
69980;BME280;57318;56.232;43.944;2023-05-23T06:37:19;99892.88;;;25.92;28.88
69980;BME280;57318;56.232;43.944;2023-05-23T06:39:45;99887.63;;;26.69;28.09
69980;BME280;57318;56.232;43.944;2023-05-23T06:42:11;99899.28;;;27.97;26.23
69980;BME280;57318;56.232;43.944;2023-05-23T06:44:36;99890.19;;;29.20;23.82
69980;BME280;57318;56.232;43.944;2023-05-23T06:47:02;99900.06;;;30.51;23.23
69980;BME280;57318;56.232;43.944;2023-05-23T06:49:28;99903.59;;;32.06;21.89
69980;BME280;57318;56.232;43.944;2023-05-23T06:51:53;99896.88;;;33.39;19.74
69980;BME280;57318;56.232;43.944;2023-05-23T06:54:19;99897.84;;;34.51;19.01
69980;BME280;57318;56.232;43.944;2023-05-23T06:56:45;99904.31;;;36.01;17.80
69980;BME280;57318;56.232;43.944;2023-05-23T06:59:10;99899.00;;;37.19;16.27
69980;BME280;57318;56.232;43.944;2023-05-23T07:01:36;99907.22;;;38.23;15.89
69980;BME280;57318;56.232;43.944;2023-05-23T07:04:02;99899.50;;;39.01;14.98
69980;BME280;57318;56.232;43.944;2023-05-23T07:06:28;99907.09;;;39.80;13.96
69980;BME280;57318;56.232;43.944;2023-05-23T07:08:53;99915.50;;;40.08;13.89
69980;BME280;57318;56.232;43.944;2023-05-23T07:11:20;99909.81;;;40.27;13.05
69980;BME280;57318;56.232;43.944;2023-05-23T07:13:46;99912.47;;;39.91;12.26
69980;BME280;57318;56.232;43.944;2023-05-23T07:16:12;99910.94;;;39.51;12.26
69980;BME280;57318;56.232;43.944;2023-05-23T07:18:38;99901.47;;;39.01;12.24
69980;BME280;57318;56.232;43.944;2023-05-23T07:21:04;99900.91;;;39.56;12.54
69980;BME280;57318;56.232;43.944;2023-05-23T07:23:33;99905.63;;;39.36;12.74
69980;BME280;57318;56.232;43.944;2023-05-23T07:25:59;99906.06;;;39.10;13.07
69980;BME280;57318;56.232;43.944;2023-05-23T07:28:26;99898.16;;;39.50;12.63
69980;BME280;57318;56.232;43.944;2023-05-23T07:30:51;99902.53;;;39.57;12.14
69980;BME280;57318;56.232;43.944;2023-05-23T07:33:17;99899.19;;;39.87;11.72
69980;BME280;57318;56.232;43.944;2023-05-23T07:35:43;99906.41;;;39.88;11.80
69980;BME280;57318;56.232;43.944;2023-05-23T07:38:09;99894.38;;;40.07;11.65
69980;BME280;57318;56.232;43.944;2023-05-23T07:40:35;99899.31;;;39.49;12.19
69980;BME280;57318;56.232;43.944;2023-05-23T07:43:03;99898.94;;;39.56;12.63
69980;BME280;57318;56.232;43.944;2023-05-23T07:45:28;99898.72;;;39.66;13.26
69980;BME280;57318;56.232;43.944;2023-05-23T07:47:54;99904.13;;;40.32;12.97
69980;BME280;57318;56.232;43.944;2023-05-23T07:50:20;99900.63;;;39.85;13.67
69980;BME280;57318;56.232;43.944;2023-05-23T07:52:46;99902.16;;;40.61;13.36
69980;BME280;57318;56.232;43.944;2023-05-23T07:55:11;99888.47;;;41.46;12.54
69980;BME280;57318;56.232;43.944;2023-05-23T07:57:37;99883.25;;;41.84;11.59
69980;BME280;57318;56.232;43.944;2023-05-23T08:00:03;99886.50;;;41.78;11.92
69980;BME280;57318;56.232;43.944;2023-05-23T08:02:32;99887.38;;;41.87;10.52
69980;BME280;57318;56.232;43.944;2023-05-23T08:04:57;99883.31;;;41.71;10.34
69980;BME280;57318;56.232;43.944;2023-05-23T08:07:24;99873.56;;;41.51;10.91
69980;BME280;57318;56.232;43.944;2023-05-23T08:09:49;99880.81;;;41.60;10.95
69980;BME280;57318;56.232;43.944;2023-05-23T08:12:15;99880.19;;;42.04;11.05
69980;BME280;57318;56.232;43.944;2023-05-23T08:14:41;99877.34;;;42.26;10.39
69980;BME280;57318;56.232;43.944;2023-05-23T08:17:07;99873.44;;;42.53;9.97
69980;BME280;57318;56.232;43.944;2023-05-23T08:19:32;99873.81;;;42.96;9.76
69980;BME280;57318;56.232;43.944;2023-05-23T08:21:58;99871.78;;;43.31;9.09
69980;BME280;57318;56.232;43.944;2023-05-23T08:24:23;99869.84;;;43.23;8.18
69980;BME280;57318;56.232;43.944;2023-05-23T08:26:49;99870.44;;;43.55;8.31
69980;BME280;57318;56.232;43.944;2023-05-23T08:29:15;99861.47;;;43.70;8.33
69980;BME280;57318;56.232;43.944;2023-05-23T08:31:41;99856.69;;;43.79;7.56
69980;BME280;57318;56.232;43.944;2023-05-23T08:34:07;99863.47;;;43.70;7.81
69980;BME280;57318;56.232;43.944;2023-05-23T08:36:32;99852.09;;;43.19;7.83
69980;BME280;57318;56.232;43.944;2023-05-23T08:39:01;99849.97;;;43.81;7.96
69980;BME280;57318;56.232;43.944;2023-05-23T08:41:29;99848.94;;;43.29;7.32
69980;BME280;57318;56.232;43.944;2023-05-23T08:43:55;99850.25;;;42.97;7.28
69980;BME280;57318;56.232;43.944;2023-05-23T08:46:22;99847.31;;;43.11;7.61
69980;BME280;57318;56.232;43.944;2023-05-23T08:48:51;99853.75;;;43.67;7.67
69980;BME280;57318;56.232;43.944;2023-05-23T08:51:18;99834.66;;;43.04;7.27
69980;BME280;57318;56.232;43.944;2023-05-23T08:53:46;99832.88;;;41.50;7.53
69980;BME280;57318;56.232;43.944;2023-05-23T08:56:12;99824.13;;;40.74;8.12
69980;BME280;57318;56.232;43.944;2023-05-23T08:58:41;99823.69;;;40.58;7.84
69980;BME280;57318;56.232;43.944;2023-05-23T09:01:11;99818.13;;;41.58;8.15
69980;BME280;57318;56.232;43.944;2023-05-23T09:03:38;99815.72;;;42.14;7.42
69980;BME280;57318;56.232;43.944;2023-05-23T09:06:08;99831.56;;;42.80;7.13
69980;BME280;57318;56.232;43.944;2023-05-23T09:08:34;99832.19;;;43.12;7.13
69980;BME280;57318;56.232;43.944;2023-05-23T09:11:04;99829.25;;;41.89;7.11
69980;BME280;57318;56.232;43.944;2023-05-23T09:13:31;99818.47;;;41.02;7.85
69980;BME280;57318;56.232;43.944;2023-05-23T09:18:25;99823.16;;;42.36;7.69
69980;BME280;57318;56.232;43.944;2023-05-23T09:20:51;99821.03;;;43.03;7.39
69980;BME280;57318;56.232;43.944;2023-05-23T09:23:17;99809.63;;;42.12;8.31
69980;BME280;57318;56.232;43.944;2023-05-23T09:25:47;99814.13;;;40.37;9.59
69980;BME280;57318;56.232;43.944;2023-05-23T09:28:13;99802.34;;;38.63;10.43
69980;BME280;57318;56.232;43.944;2023-05-23T09:30:38;99787.28;;;36.60;11.59
69980;BME280;57318;56.232;43.944;2023-05-23T09:33:04;99793.16;;;37.28;11.79
69980;BME280;57318;56.232;43.944;2023-05-23T09:35:30;99790.84;;;36.66;12.09
69980;BME280;57318;56.232;43.944;2023-05-23T09:37:57;99788.00;;;37.11;10.61
69980;BME280;57318;56.232;43.944;2023-05-23T09:40:31;99790.59;;;38.28;9.41
69980;BME280;57318;56.232;43.944;2023-05-23T09:43:04;99786.31;;;37.73;9.63
69980;BME280;57318;56.232;43.944;2023-05-23T09:45:32;99791.91;;;38.12;9.47
69980;BME280;57318;56.232;43.944;2023-05-23T09:47:58;99784.47;;;38.07;9.49
69980;BME280;57318;56.232;43.944;2023-05-23T09:50:29;99788.03;;;38.89;9.43
69980;BME280;57318;56.232;43.944;2023-05-23T09:52:55;99795.44;;;40.51;8.90
69980;BME280;57318;56.232;43.944;2023-05-23T09:55:21;99802.66;;;41.74;8.19
69980;BME280;57318;56.232;43.944;2023-05-23T09:57:52;99804.28;;;41.44;7.88
69980;BME280;57318;56.232;43.944;2023-05-23T10:00:19;99783.63;;;40.32;8.52
69980;BME280;57318;56.232;43.944;2023-05-23T10:02:59;99777.84;;;39.17;8.95
69980;BME280;57318;56.232;43.944;2023-05-23T10:05:33;99776.81;;;37.80;10.31
69980;BME280;57318;56.232;43.944;2023-05-23T10:08:01;99766.31;;;37.23;10.61
69980;BME280;57318;56.232;43.944;2023-05-23T10:10:31;99768.44;;;35.37;11.52
69980;BME280;57318;56.232;43.944;2023-05-23T10:13:01;99762.69;;;34.87;12.31
69980;BME280;57318;56.232;43.944;2023-05-23T10:15:38;99770.63;;;35.50;12.37
69980;BME280;57318;56.232;43.944;2023-05-23T10:18:25;99765.81;;;36.87;11.55
69980;BME280;57318;56.232;43.944;2023-05-23T10:20:56;99765.31;;;37.09;11.78
69980;BME280;57318;56.232;43.944;2023-05-23T10:23:26;99779.06;;;38.21;10.72
69980;BME280;57318;56.232;43.944;2023-05-23T10:25:53;99773.00;;;38.14;10.71
69980;BME280;57318;56.232;43.944;2023-05-23T10:28:20;99767.75;;;37.93;11.04
69980;BME280;57318;56.232;43.944;2023-05-23T10:30:46;99771.91;;;38.53;10.68
69980;BME280;57318;56.232;43.944;2023-05-23T10:33:13;99772.91;;;39.28;10.07
69980;BME280;57318;56.232;43.944;2023-05-23T10:38:25;99773.72;;;41.30;7.40
69980;BME280;57318;56.232;43.944;2023-05-23T10:41:05;99774.41;;;41.84;6.94
69980;BME280;57318;56.232;43.944;2023-05-23T10:43:47;99765.53;;;41.74;7.45
69980;BME280;57318;56.232;43.944;2023-05-23T10:46:15;99763.16;;;41.58;7.32
69980;BME280;57318;56.232;43.944;2023-05-23T10:48:42;99769.66;;;39.95;7.62
69980;BME280;57318;56.232;43.944;2023-05-23T10:51:12;99763.28;;;38.73;8.53
69980;BME280;57318;56.232;43.944;2023-05-23T10:53:45;99753.63;;;38.52;9.04
69980;BME280;57318;56.232;43.944;2023-05-23T10:56:21;99764.13;;;38.36;9.28
69980;BME280;57318;56.232;43.944;2023-05-23T10:58:55;99755.94;;;37.58;9.05
69980;BME280;57318;56.232;43.944;2023-05-23T11:01:23;99749.47;;;36.85;9.21
69980;BME280;57318;56.232;43.944;2023-05-23T11:03:50;99763.72;;;36.18;9.32
69980;BME280;57318;56.232;43.944;2023-05-23T11:06:30;99748.22;;;36.22;9.71
69980;BME280;57318;56.232;43.944;2023-05-23T11:09:04;99759.19;;;35.83;10.11
69980;BME280;57318;56.232;43.944;2023-05-23T11:14:15;99738.50;;;36.70;9.88
69980;BME280;57318;56.232;43.944;2023-05-23T11:16:42;99740.72;;;37.55;9.64
69980;BME280;57318;56.232;43.944;2023-05-23T11:21:58;99738.06;;;39.03;8.66
69980;BME280;57318;56.232;43.944;2023-05-23T11:27:13;99743.84;;;38.73;9.04
69980;BME280;57318;56.232;43.944;2023-05-23T11:29:38;99750.00;;;38.51;8.96
69980;BME280;57318;56.232;43.944;2023-05-23T11:32:13;99737.09;;;39.26;8.81
69980;BME280;57318;56.232;43.944;2023-05-23T11:34:40;99744.84;;;39.99;8.81
69980;BME280;57318;56.232;43.944;2023-05-23T11:37:06;99735.38;;;40.82;8.55
69980;BME280;57318;56.232;43.944;2023-05-23T11:39:32;99736.75;;;41.56;7.92
69980;BME280;57318;56.232;43.944;2023-05-23T11:42:01;99744.44;;;42.16;7.47
69980;BME280;57318;56.232;43.944;2023-05-23T11:44:27;99730.09;;;41.83;7.95
69980;BME280;57318;56.232;43.944;2023-05-23T11:47:00;99739.78;;;41.86;8.04
69980;BME280;57318;56.232;43.944;2023-05-23T11:49:30;99731.97;;;42.31;7.55
69980;BME280;57318;56.232;43.944;2023-05-23T11:51:57;99713.91;;;41.45;7.62
69980;BME280;57318;56.232;43.944;2023-05-23T11:54:27;99721.78;;;40.21;8.42
69980;BME280;57318;56.232;43.944;2023-05-23T11:56:54;99722.50;;;39.76;8.97
69980;BME280;57318;56.232;43.944;2023-05-23T11:59:23;99727.97;;;39.54;8.76
69980;BME280;57318;56.232;43.944;2023-05-23T12:01:50;99724.53;;;39.98;8.77
69980;BME280;57318;56.232;43.944;2023-05-23T12:04:16;99714.50;;;40.70;8.52
69980;BME280;57318;56.232;43.944;2023-05-23T12:06:45;99717.81;;;41.04;8.69
69980;BME280;57318;56.232;43.944;2023-05-23T12:09:12;99710.84;;;39.74;9.27
69980;BME280;57318;56.232;43.944;2023-05-23T12:11:39;99699.78;;;38.34;10.01
69980;BME280;57318;56.232;43.944;2023-05-23T12:14:06;99691.50;;;37.18;11.07
69980;BME280;57318;56.232;43.944;2023-05-23T12:16:34;99693.56;;;37.36;10.55
69980;BME280;57318;56.232;43.944;2023-05-23T12:19:01;99693.69;;;38.13;10.47
69980;BME280;57318;56.232;43.944;2023-05-23T12:21:45;99701.41;;;38.87;10.14
69980;BME280;57318;56.232;43.944;2023-05-23T12:24:13;99700.66;;;39.28;9.80
69980;BME280;57318;56.232;43.944;2023-05-23T12:26:45;99694.38;;;39.78;9.47
69980;BME280;57318;56.232;43.944;2023-05-23T12:29:11;99695.22;;;38.76;10.20
69980;BME280;57318;56.232;43.944;2023-05-23T12:31:37;99699.56;;;38.30;10.51
69980;BME280;57318;56.232;43.944;2023-05-23T12:34:03;99692.00;;;38.50;10.32
69980;BME280;57318;56.232;43.944;2023-05-23T12:36:29;99695.00;;;38.72;10.06
69980;BME280;57318;56.232;43.944;2023-05-23T12:39:02;99687.88;;;38.66;10.23
69980;BME280;57318;56.232;43.944;2023-05-23T12:41:28;99683.56;;;38.41;10.10
69980;BME280;57318;56.232;43.944;2023-05-23T12:43:55;99689.19;;;38.17;10.45
69980;BME280;57318;56.232;43.944;2023-05-23T12:46:25;99683.81;;;38.25;10.06
69980;BME280;57318;56.232;43.944;2023-05-23T12:48:51;99669.84;;;37.73;10.13
69980;BME280;57318;56.232;43.944;2023-05-23T12:51:18;99683.72;;;38.12;10.25
69980;BME280;57318;56.232;43.944;2023-05-23T12:53:44;99669.38;;;38.04;9.77
69980;BME280;57318;56.232;43.944;2023-05-23T12:56:10;99669.34;;;38.29;9.68
69980;BME280;57318;56.232;43.944;2023-05-23T12:58:36;99670.41;;;38.47;9.79
69980;BME280;57318;56.232;43.944;2023-05-23T13:01:02;99669.09;;;38.58;9.70
69980;BME280;57318;56.232;43.944;2023-05-23T13:03:28;99672.38;;;37.46;10.34
69980;BME280;57318;56.232;43.944;2023-05-23T13:05:58;99670.75;;;36.22;10.97
69980;BME280;57318;56.232;43.944;2023-05-23T13:08:25;99659.25;;;35.50;11.35
69980;BME280;57318;56.232;43.944;2023-05-23T13:10:55;99651.41;;;34.86;11.93
69980;BME280;57318;56.232;43.944;2023-05-23T13:13:21;99655.81;;;34.93;12.02